Time;durP1;ratioP1;P1;durP2;ratioP2;P2;SDS_P1;SDS_P2;PMS_P1;PMS_P2;Temp;Humidity;BMP_temperature;BMP_pressure;BME280_temperature;BME280_humidity;BME280_pressure;Samples;Min_cycle;Max_cycle;Signal;HPM_P1;HPM_P2
2024/02/29 00:01:39;;;;;;;13.00;8.43;;;;;;;3.84;71.00;99303.41;5174695;27;42358;-80
2024/02/29 00:04:07;;;;;;;16.03;9.53;;;;;;;3.65;70.62;99275.16;5174325;27;42295;-81
2024/02/29 00:06:34;;;;;;;17.37;9.40;;;;;;;3.73;71.14;99300.22;5157600;27;40114;-82
2024/02/29 00:09:02;;;;;;;15.23;8.37;;;;;;;3.57;70.75;99283.22;5174557;27;41510;-83
2024/02/29 00:11:29;;;;;;;16.73;8.97;;;;;;;3.62;70.70;99291.81;5174924;27;43771;-82
2024/02/29 00:13:57;;;;;;;14.40;8.60;;;;;;;3.48;71.15;99273.84;5156266;27;42785;-83
2024/02/29 00:16:25;;;;;;;15.87;9.37;;;;;;;3.43;72.11;99265.28;5173459;27;39933;-82
2024/02/29 00:18:54;;;;;;;15.53;9.73;;;;;;;3.52;72.03;99282.47;5156037;27;41893;-82
2024/02/29 00:21:21;;;;;;;16.97;10.23;;;;;;;3.49;73.36;99270.34;5174687;27;42803;-81
2024/02/29 00:23:48;;;;;;;19.87;11.10;;;;;;;3.45;73.46;99267.84;5173458;27;41239;-81
2024/02/29 00:26:16;;;;;;;12.60;8.40;;;;;;;3.46;73.17;99269.56;5156185;27;39990;-81
2024/02/29 00:28:43;;;;;;;17.03;10.33;;;;;;;3.28;73.06;99251.72;5173326;27;40662;-78
2024/02/29 00:31:11;;;;;;;18.97;11.20;;;;;;;2.96;72.96;99214.22;5173590;27;43157;-81
2024/02/29 00:33:40;;;;;;;15.63;8.87;;;;;;;3.38;72.62;99282.00;5173073;27;43119;-83
2024/02/29 00:36:09;;;;;;;16.00;8.83;;;;;;;3.23;72.80;99252.69;5173583;27;39896;-81
2024/02/29 00:38:37;;;;;;;16.17;9.53;;;;;;;2.98;72.25;99220.22;5155615;27;41846;-83
2024/02/29 00:41:04;;;;;;;15.80;8.40;;;;;;;3.14;72.46;99247.72;5174427;27;43684;-81
2024/02/29 00:43:32;;;;;;;14.63;8.43;;;;;;;3.25;72.00;99277.09;5173160;27;42013;-83
2024/02/29 00:45:59;;;;;;;13.47;7.67;;;;;;;3.18;72.05;99272.91;5156876;27;38916;-80
2024/02/29 00:48:27;;;;;;;13.83;9.00;;;;;;;3.16;71.97;99261.63;5167010;27;40464;-80
2024/02/29 00:50:54;;;;;;;16.63;8.60;;;;;;;3.11;71.78;99268.72;5177516;27;42911;-82
2024/02/29 00:53:23;;;;;;;20.30;12.17;;;;;;;3.02;71.92;99247.19;5156043;27;42550;-78
2024/02/29 00:55:51;;;;;;;14.77;9.17;;;;;;;3.02;73.21;99241.94;5155622;27;39178;-83
2024/02/29 00:58:18;;;;;;;15.90;10.00;;;;;;;2.87;73.00;99230.97;5173258;27;40684;-81
2024/02/29 01:00:46;;;;;;;13.77;8.67;;;;;;;2.95;72.60;99251.72;5173781;27;43020;-82
2024/02/29 01:03:13;;;;;;;18.40;10.10;;;;;;;2.93;72.68;99236.97;5175960;27;42188;-82
2024/02/29 01:05:41;;;;;;;14.73;9.33;;;;;;;2.73;72.64;99219.16;5175025;27;40713;-80
2024/02/29 01:08:08;;;;;;;13.67;8.43;;;;;;;2.86;72.51;99242.34;5174425;27;41790;-80
2024/02/29 01:10:37;;;;;;;15.40;7.97;;;;;;;2.84;72.36;99248.53;5173687;27;43795;-80
2024/02/29 01:13:05;;;;;;;14.23;8.37;;;;;;;2.75;72.25;99241.75;5174211;27;42324;-80
2024/02/29 01:15:32;;;;;;;15.73;8.57;;;;;;;2.67;72.22;99230.63;5157923;27;39065;-80
2024/02/29 01:18:00;;;;;;;12.10;7.73;;;;;;;2.69;72.12;99239.31;5160251;27;40318;-81
2024/02/29 01:20:28;;;;;;;12.40;7.60;;;;;;;2.70;72.57;99245.38;5176727;27;41704;-80
2024/02/29 01:22:55;;;;;;;14.17;9.47;;;;;;;2.67;72.29;99235.00;5177629;27;42411;-79
2024/02/29 01:25:23;;;;;;;15.60;8.73;;;;;;;2.64;72.49;99240.28;5158811;27;39127;-79
2024/02/29 01:27:52;;;;;;;13.00;7.93;;;;;;;2.55;72.38;99227.47;5158061;27;41581;-82
2024/02/29 01:30:19;;;;;;;16.00;9.30;;;;;;;2.47;72.54;99218.03;5175968;27;43738;-82
2024/02/29 01:32:47;;;;;;;12.43;8.70;;;;;;;2.56;72.61;99237.03;5158705;27;41159;-81
2024/02/29 01:35:14;;;;;;;12.73;8.57;;;;;;;2.49;72.66;99234.53;5176327;27;39072;-81
2024/02/29 01:37:42;;;;;;;18.23;8.83;;;;;;;2.49;72.57;99231.06;5158265;27;40529;-78
2024/02/29 01:40:10;;;;;;;12.90;8.27;;;;;;;2.47;72.27;99227.66;5176201;27;43293;-81
2024/02/29 01:42:41;;;;;;;13.77;8.47;;;;;;;2.37;72.67;99211.31;5175949;27;43154;-82
2024/02/29 01:45:12;;;;;;;13.60;8.60;;;;;;;2.32;73.41;99207.97;5158556;27;39130;-80
2024/02/29 01:47:40;;;;;;;14.30;9.20;;;;;;;2.32;72.95;99209.72;5176274;27;42776;-81
2024/02/29 01:50:11;;;;;;;14.70;8.93;;;;;;;2.34;72.82;99205.31;5175924;27;42894;-79
2024/02/29 01:52:40;;;;;;;15.10;8.93;;;;;;;2.29;73.12;99202.81;5158371;27;41045;-82
2024/02/29 01:55:10;;;;;;;15.67;9.13;;;;;;;2.19;74.05;99175.19;5175980;27;38860;-82
2024/02/29 01:57:39;;;;;;;18.87;11.10;;;;;;;2.28;74.14;99195.84;5175582;27;41698;-80
2024/02/29 02:00:10;;;;;;;19.07;10.90;;;;;;;2.17;74.47;99182.19;5159012;27;42126;-80
2024/02/29 02:02:39;;;;;;;16.47;10.57;;;;;;;2.28;74.79;99198.47;5176546;27;43019;-79
2024/02/29 02:05:06;;;;;;;16.43;9.57;;;;;;;2.27;74.24;99190.66;5176704;27;39889;-78
2024/02/29 02:07:35;;;;;;;16.13;10.10;;;;;;;2.24;74.29;99191.59;5176864;27;41049;-82
2024/02/29 02:10:03;;;;;;;13.73;8.30;;;;;;;2.23;74.42;99189.00;5176672;27;42691;-80
2024/02/29 02:12:30;;;;;;;20.40;10.83;;;;;;;2.20;79.16;99166.44;5176320;27;41742;-80
2024/02/29 02:15:01;;;;;;;20.90;12.00;;;;;;;2.19;79.19;99162.13;5176934;27;40967;-79
2024/02/29 02:17:29;;;;;;;19.63;11.37;;;;;;;2.19;78.55;99162.13;5176597;27;40791;-79
2024/02/29 02:19:58;;;;;;;17.13;10.17;;;;;;;2.18;77.73;99165.63;5176633;27;41630;-80
2024/02/29 02:22:28;;;;;;;21.53;12.03;;;;;;;2.16;77.33;99175.25;5158141;27;41200;-81
2024/02/29 02:24:55;;;;;;;15.93;9.83;;;;;;;2.10;77.11;99165.78;5175993;27;39979;-79
2024/02/29 02:27:23;;;;;;;14.83;8.80;;;;;;;2.10;76.92;99162.34;5157628;27;42131;-78
2024/02/29 02:29:50;;;;;;;17.73;11.13;;;;;;;1.97;78.54;99138.25;5175411;27;42648;-80
2024/02/29 02:32:18;;;;;;;16.73;10.50;;;;;;;1.98;78.23;99149.56;5174668;27;41076;-80
2024/02/29 02:34:45;;;;;;;17.00;10.07;;;;;;;1.99;77.97;99140.81;5175264;27;40297;-81
2024/02/29 02:37:13;;;;;;;18.77;10.10;;;;;;;2.00;77.79;99159.06;5157712;27;40963;-82
2024/02/29 02:39:42;;;;;;;17.13;10.50;;;;;;;1.86;77.17;99131.53;5175288;27;42968;-81
2024/02/29 02:42:09;;;;;;;13.57;8.30;;;;;;;1.83;76.97;99134.25;5174806;27;42986;-82
2024/02/29 02:44:37;;;;;;;15.17;9.40;;;;;;;1.91;76.93;99154.06;5175244;27;40168;-82
2024/02/29 02:47:04;;;;;;;14.13;9.27;;;;;;;1.90;76.76;99156.69;5175112;27;41787;-82
2024/02/29 02:49:32;;;;;;;14.10;8.47;;;;;;;1.88;76.89;99150.66;5157706;27;42852;-79
2024/02/29 02:51:59;;;;;;;15.17;8.77;;;;;;;1.71;76.48;99120.59;5174873;27;42888;-81
2024/02/29 02:54:27;;;;;;;12.50;7.80;;;;;;;1.82;76.65;99137.75;5176170;27;40089;-81
2024/02/29 02:56:56;;;;;;;12.10;7.53;;;;;;;1.79;76.51;99139.53;5157425;27;42135;-80
2024/02/29 02:59:23;;;;;;;14.87;8.27;;;;;;;1.64;76.66;99126.81;5158009;27;44281;-79
2024/02/29 03:01:51;;;;;;;15.03;8.57;;;;;;;1.60;76.32;99122.56;5158206;27;41309;-81
2024/02/29 03:04:18;;;;;;;13.87;8.80;;;;;;;1.70;76.28;99147.56;5158343;27;38919;-79
2024/02/29 03:06:45;;;;;;;11.83;8.13;;;;;;;1.68;76.13;99143.28;5175909;27;40906;-79
2024/02/29 03:09:13;;;;;;;15.57;8.33;;;;;;;1.64;75.90;99147.69;5176055;27;43628;-79
2024/02/29 03:11:40;;;;;;;12.10;7.17;;;;;;;1.61;75.99;99150.38;5175509;27;43594;-82
2024/02/29 03:14:10;;;;;;;12.67;7.47;;;;;;;1.58;75.90;99147.00;5174819;27;39960;-80
2024/02/29 03:16:37;;;;;;;12.60;8.50;;;;;;;1.55;75.94;99147.03;5156214;27;42916;-80
2024/02/29 03:19:05;;;;;;;15.73;8.17;;;;;;;1.51;75.87;99146.25;5174646;27;43810;-79
2024/02/29 03:21:32;;;;;;;11.43;7.50;;;;;;;1.48;75.81;99143.72;5175375;27;43218;-80
2024/02/29 03:24:00;;;;;;;11.57;7.23;;;;;;;1.47;75.92;99136.78;5174602;27;40016;-82
2024/02/29 03:26:28;;;;;;;12.47;7.90;;;;;;;1.43;75.79;99140.34;5177424;27;42544;-80
2024/02/29 03:28:55;;;;;;;15.70;9.07;;;;;;;1.34;75.65;99135.31;5186901;27;43086;-79
2024/02/29 03:31:24;;;;;;;14.53;8.87;;;;;;;1.39;75.54;99138.69;5178021;27;42317;-80
2024/02/29 03:33:52;;;;;;;15.53;8.43;;;;;;;1.38;75.56;99142.16;5174434;27;41151;-81
2024/02/29 03:36:20;;;;;;;17.03;8.30;;;;;;;1.38;75.93;99144.78;5175553;27;41727;-82
2024/02/29 03:38:47;;;;;;;16.40;9.13;;;;;;;1.28;75.92;99130.22;5173419;27;42704;-80
2024/02/29 03:41:15;;;;;;;12.73;7.63;;;;;;;1.25;75.94;99125.06;5156698;27;43873;-78
2024/02/29 03:43:42;;;;;;;18.10;10.73;;;;;;;1.33;75.64;99138.81;5175322;27;39888;-79
2024/02/29 03:46:10;;;;;;;13.43;8.40;;;;;;;1.30;75.71;99133.66;5173768;27;40629;-81
2024/02/29 03:48:39;;;;;;;14.23;8.53;;;;;;;1.32;75.78;99143.19;5175390;27;43736;-81
2024/02/29 03:51:07;;;;;;;12.73;7.80;;;;;;;1.31;76.14;99135.38;5174795;27;43132;-81
2024/02/29 03:53:35;;;;;;;17.17;9.63;;;;;;;1.27;75.82;99134.56;5156417;27;38685;-81
2024/02/29 03:56:03;;;;;;;13.17;7.83;;;;;;;1.30;76.23;99136.28;5173756;27;40531;-79
2024/02/29 03:58:30;;;;;;;12.77;7.53;;;;;;;1.29;76.11;99131.94;5173941;27;43909;-81
2024/02/29 04:00:58;;;;;;;15.40;9.17;;;;;;;1.17;78.07;99103.50;5157406;27;43403;-80
2024/02/29 04:03:26;;;;;;;19.10;10.87;;;;;;;1.29;78.36;99117.16;5157209;27;39990;-81
2024/02/29 04:05:55;;;;;;;18.17;10.90;;;;;;;1.29;80.50;99101.50;5157360;27;41829;-80
2024/02/29 04:08:23;;;;;;;20.07;12.33;;;;;;;1.32;80.41;99106.66;5157277;27;41936;-81
2024/02/29 04:10:50;;;;;;;18.67;11.20;;;;;;;1.32;79.53;99103.19;5156980;27;40957;-80
2024/02/29 04:13:18;;;;;;;19.27;10.97;;;;;;;1.26;79.38;99098.94;5174718;27;39580;-79
2024/02/29 04:15:46;;;;;;;15.17;10.17;;;;;;;1.21;79.18;99086.91;5174653;27;41979;-80
2024/02/29 04:18:14;;;;;;;16.67;10.27;;;;;;;1.29;79.13;99100.63;5156923;27;45113;-80
2024/02/29 04:20:41;;;;;;;14.83;9.00;;;;;;;1.27;78.79;99098.06;5174550;27;41211;-79
2024/02/29 04:23:11;;;;;;;15.87;8.67;;;;;;;1.26;78.66;99096.34;5174876;27;39975;-80
2024/02/29 04:25:38;;;;;;;13.57;8.23;;;;;;;1.26;78.85;99100.69;5156922;27;43860;-80
2024/02/29 04:28:06;;;;;;;19.40;10.77;;;;;;;1.25;80.27;99085.94;5156541;27;43836;-81
2024/02/29 04:30:34;;;;;;;17.23;9.90;;;;;;;1.26;79.62;99090.25;5172585;27;43848;-81
2024/02/29 04:33:02;;;;;;;18.33;11.30;;;;;;;1.16;80.13;99073.09;5172845;27;38683;-79
2024/02/29 04:35:30;;;;;;;16.63;10.50;;;;;;;1.28;80.42;99088.47;5155751;27;40747;-80
2024/02/29 04:37:58;;;;;;;19.20;11.57;;;;;;;1.29;80.77;99084.97;5156049;27;43353;-79
2024/02/29 04:40:27;;;;;;;19.23;11.47;;;;;;;1.30;80.47;99090.16;5174413;27;42490;-80
2024/02/29 04:42:54;;;;;;;19.40;11.10;;;;;;;1.29;80.22;99084.97;5155976;27;40261;-79
2024/02/29 04:45:23;;;;;;;17.60;10.77;;;;;;;1.26;80.02;99080.69;5173441;27;41993;-80
2024/02/29 04:47:52;;;;;;;17.80;10.50;;;;;;;1.21;79.58;99084.28;5155911;27;41581;-80
2024/02/29 04:50:20;;;;;;;14.67;8.77;;;;;;;1.20;79.29;99090.41;5176257;27;42040;-79
2024/02/29 04:52:47;;;;;;;17.37;9.63;;;;;;;1.18;79.07;99081.75;5177074;27;40224;-80
2024/02/29 04:55:15;;;;;;;16.70;9.63;;;;;;;1.18;79.16;99082.59;5178288;27;41765;-81
2024/02/29 04:57:43;;;;;;;15.37;8.83;;;;;;;1.18;78.90;99090.44;5159297;27;42781;-79
2024/02/29 05:00:13;;;;;;;15.73;9.17;;;;;;;1.17;79.20;99082.63;5177601;27;42246;-80
2024/02/29 05:02:40;;;;;;;15.73;9.17;;;;;;;1.22;79.17;99078.19;5160133;27;40422;-81
2024/02/29 05:05:08;;;;;;;15.50;9.00;;;;;;;1.27;79.17;99078.94;5160340;27;41981;-81
2024/02/29 05:07:35;;;;;;;14.23;9.20;;;;;;;1.33;79.22;99077.06;5177890;27;42913;-79
2024/02/29 05:10:03;;;;;;;20.90;11.60;;;;;;;1.33;80.33;99047.50;5179091;27;42323;-81
2024/02/29 05:12:34;;;;;;;15.47;9.93;;;;;;;1.49;79.75;99053.22;5160423;27;39073;-79
2024/02/29 05:15:03;;;;;;;16.60;10.13;;;;;;;1.70;79.23;99069.25;5177918;27;41714;-80
2024/02/29 05:17:31;;;;;;;17.00;10.50;;;;;;;1.71;78.49;99049.22;5159984;27;41550;-79
2024/02/29 05:19:58;;;;;;;16.47;9.73;;;;;;;1.96;78.16;99063.41;5177561;27;43159;-81
2024/02/29 05:22:26;;;;;;;15.67;9.60;;;;;;;2.09;78.08;99061.34;5175718;27;40685;-80
2024/02/29 05:24:53;;;;;;;18.97;10.37;;;;;;;2.19;78.09;99065.44;5158804;27;42964;-79
2024/02/29 05:27:20;;;;;;;16.33;10.00;;;;;;;2.24;77.65;99053.09;5176299;27;42910;-80
2024/02/29 05:29:48;;;;;;;17.13;10.40;;;;;;;2.40;77.90;99064.88;5176435;27;42061;-81
2024/02/29 05:32:17;;;;;;;14.57;9.70;;;;;;;2.39;77.85;99044.88;5175652;27;41030;-79
2024/02/29 05:34:46;;;;;;;15.90;10.23;;;;;;;2.29;77.54;99016.41;5177335;27;41441;-80
2024/02/29 05:37:13;;;;;;;15.17;9.63;;;;;;;2.68;77.04;99064.16;5158457;27;41625;-80
2024/02/29 05:39:42;;;;;;;15.33;9.20;;;;;;;2.74;77.14;99058.72;5176110;27;41022;-79
2024/02/29 05:42:09;;;;;;;16.17;10.33;;;;;;;2.78;76.90;99061.22;5175995;27;38903;-80
2024/02/29 05:44:37;;;;;;;16.43;9.67;;;;;;;2.76;77.17;99046.47;5177189;27;41653;-80
2024/02/29 05:47:04;;;;;;;18.23;11.40;;;;;;;2.79;77.15;99041.16;5175511;27;41975;-81
2024/02/29 05:49:34;;;;;;;17.00;9.93;;;;;;;2.87;77.30;99049.66;5177082;27;42455;-81
2024/02/29 05:52:01;;;;;;;18.87;11.30;;;;;;;2.84;76.93;99039.28;5177217;27;39783;-79
2024/02/29 05:54:29;;;;;;;18.83;11.40;;;;;;;2.90;77.03;99044.34;5158342;27;40325;-80
2024/02/29 05:56:57;;;;;;;17.17;11.00;;;;;;;2.89;76.87;99037.38;5175452;27;41569;-80
2024/02/29 05:59:25;;;;;;;20.57;11.17;;;;;;;2.95;77.07;99047.69;5176137;27;42200;-81
2024/02/29 06:01:52;;;;;;;15.63;10.13;;;;;;;2.85;76.89;99027.91;5175636;27;40714;-79
2024/02/29 06:04:20;;;;;;;17.67;11.37;;;;;;;2.99;76.98;99044.06;5176255;27;41751;-79
2024/02/29 06:06:49;;;;;;;19.60;11.33;;;;;;;3.03;77.64;99044.84;5158442;27;42073;-80
2024/02/29 06:09:16;;;;;;;20.40;12.07;;;;;;;3.05;77.65;99038.66;5176210;27;42931;-79
2024/02/29 06:11:44;;;;;;;20.83;12.40;;;;;;;3.01;78.12;99010.88;5158590;27;39343;-81
2024/02/29 06:14:11;;;;;;;20.73;12.10;;;;;;;3.15;78.19;99024.41;5174789;27;42216;-80
2024/02/29 06:16:39;;;;;;;21.90;12.00;;;;;;;3.20;77.73;99019.03;5175725;27;43748;-81
2024/02/29 06:19:06;;;;;;;20.77;12.57;;;;;;;3.27;78.26;99014.47;5174705;27;42385;-81
2024/02/29 06:21:34;;;;;;;20.10;12.23;;;;;;;3.34;78.15;99019.44;5175162;27;40503;-82
2024/02/29 06:24:03;;;;;;;19.77;11.33;;;;;;;3.41;78.01;99025.38;5175523;27;41790;-84
2024/02/29 06:26:30;;;;;;;22.13;13.40;;;;;;;3.48;77.72;99014.66;5157352;27;44998;-85
2024/02/29 06:28:58;;;;;;;19.20;11.37;;;;;;;3.54;77.89;99021.47;5175164;27;43116;-85
2024/02/29 06:31:26;;;;;;;20.13;11.73;;;;;;;3.59;77.97;99009.06;5174763;27;41000;-85
2024/02/29 06:33:53;;;;;;;23.07;12.93;;;;;;;3.47;78.09;98983.28;5157133;27;43310;-81
2024/02/29 06:36:21;;;;;;;22.33;13.30;;;;;;;3.64;78.06;99006.31;5174706;27;42970;-80
2024/02/29 06:38:48;;;;;;;19.73;12.03;;;;;;;3.69;78.09;99010.50;5174630;27;42512;-82
2024/02/29 06:41:18;;;;;;;21.07;12.50;;;;;;;3.75;78.00;99010.28;5174312;27;38916;-82
2024/02/29 06:43:46;;;;;;;24.33;14.23;;;;;;;3.82;77.91;99010.97;5157244;27;40297;-86
2024/02/29 06:46:13;;;;;;;20.43;12.60;;;;;;;3.90;77.58;99007.19;5156906;27;41617;-82
2024/02/29 06:48:40;;;;;;;20.17;12.67;;;;;;;4.01;77.52;99005.97;5174980;27;41196;-85
2024/02/29 06:51:08;;;;;;;21.57;12.13;;;;;;;4.07;78.53;99005.78;5157360;27;40316;-83
2024/02/29 06:53:35;;;;;;;29.57;14.57;;;;;;;4.04;78.16;98984.91;5157283;27;40688;-84
2024/02/29 06:56:03;;;;;;;20.23;12.57;;;;;;;4.25;77.83;99005.97;5175717;27;42983;-84
2024/02/29 06:58:34;;;;;;;18.70;12.10;;;;;;;4.25;77.58;98992.88;5156932;27;40940;-81
2024/02/29 07:01:02;;;;;;;19.13;11.83;;;;;;;4.46;77.45;99006.97;5158023;27;39034;-82
2024/02/29 07:03:29;;;;;;;18.80;11.67;;;;;;;4.56;77.14;99004.91;5175384;27;41901;-84
2024/02/29 07:05:57;;;;;;;23.03;12.77;;;;;;;4.62;77.94;98999.44;5176370;27;43006;-84
2024/02/29 07:08:24;;;;;;;20.07;12.57;;;;;;;4.71;77.79;98993.84;5158146;27;42048;-88
2024/02/29 07:10:52;;;;;;;19.63;12.20;;;;;;;4.69;77.44;98970.31;5157453;27;39336;-86
2024/02/29 07:13:19;;;;;;;16.83;11.07;;;;;;;5.00;77.11;98995.41;5158440;27;40550;-83
2024/02/29 07:15:48;;;;;;;18.67;11.73;;;;;;;5.09;76.97;98989.78;5159912;27;43008;-84
2024/02/29 07:18:16;;;;;;;20.63;12.90;;;;;;;5.19;77.44;98985.91;5158028;27;41419;-82
2024/02/29 07:20:43;;;;;;;21.27;12.73;;;;;;;5.38;77.10;98973.78;5157798;27;39007;-87
2024/02/29 07:23:11;;;;;;;21.40;14.07;;;;;;;5.57;76.74;98975.66;5176444;27;41998;-82
2024/02/29 07:25:39;;;;;;;23.57;13.37;;;;;;;5.62;76.00;98963.19;5174895;27;42750;-85
2024/02/29 07:28:08;;;;;;;24.43;13.53;;;;;;;5.91;76.34;98978.66;5174553;27;42198;-84
2024/02/29 07:30:35;;;;;;;21.10;13.17;;;;;;;6.05;75.74;98984.19;5174293;27;40286;-87
2024/02/29 07:33:04;;;;;;;22.50;13.90;;;;;;;6.22;75.58;98988.72;5173582;27;43558;-88
2024/02/29 07:35:32;;;;;;;22.23;14.97;;;;;;;6.41;75.34;98986.16;5173624;27;42516;-85
2024/02/29 07:37:59;;;;;;;26.10;14.53;;;;;;;6.60;74.99;98976.53;5175099;27;43185;-84
2024/02/29 07:40:27;;;;;;;24.80;13.73;;;;;;;6.75;74.28;98964.47;5173856;27;39731;-85
2024/02/29 07:42:54;;;;;;;22.40;14.13;;;;;;;7.02;73.53;98978.16;5156398;27;40796;-85
2024/02/29 07:45:22;;;;;;;22.87;13.87;;;;;;;7.13;73.22;98987.25;5173850;27;41731;-87
2024/02/29 07:47:49;;;;;;;22.23;14.27;;;;;;;7.21;72.68;98984.25;5174779;27;42220;-82
2024/02/29 07:50:19;;;;;;;22.93;13.53;;;;;;;7.30;72.90;98983.81;5173679;27;41757;-84
2024/02/29 07:52:47;;;;;;;21.30;13.70;;;;;;;7.42;72.85;98983.22;5173567;27;42022;-81
2024/02/29 07:55:16;;;;;;;22.20;14.93;;;;;;;7.49;72.32;98971.50;5173414;27;42613;-81
2024/02/29 07:57:44;;;;;;;20.83;13.13;;;;;;;7.64;72.08;98979.59;5155870;27;43876;-86
2024/02/29 08:00:13;;;;;;;21.47;13.70;;;;;;;7.64;71.76;98966.41;5156263;27;39375;-85
2024/02/29 08:02:43;;;;;;;22.30;13.27;;;;;;;7.80;71.62;98989.28;5174342;27;42164;-82
2024/02/29 08:05:11;;;;;;;25.30;13.63;;;;;;;7.99;71.28;98973.44;5175281;27;43488;-82
2024/02/29 08:07:40;;;;;;;20.13;13.70;;;;;;;8.46;70.20;98975.44;5174155;27;43558;-89
2024/02/29 08:10:13;;;;;;;23.90;13.47;;;;;;;9.05;69.52;98981.97;5174261;27;39819;-85
2024/02/29 08:12:40;;;;;;;21.50;13.33;;;;;;;9.71;66.99;98988.81;5156482;27;41109;-84
2024/02/29 08:15:09;;;;;;;23.03;13.60;;;;;;;10.07;65.92;98974.41;5173955;27;42001;-85
2024/02/29 08:17:37;;;;;;;20.57;11.83;;;;;;;10.66;65.31;98986.75;5173746;27;43359;-84
2024/02/29 08:20:07;;;;;;;18.77;13.53;;;;;;;11.65;63.19;98977.84;5172080;27;38891;-86
2024/02/29 08:22:35;;;;;;;19.60;13.77;;;;;;;13.03;58.94;99010.09;5172753;27;42552;-83
2024/02/29 08:25:07;;;;;;;20.23;13.90;;;;;;;13.43;56.98;99007.31;5154579;27;42106;-87
2024/02/29 08:27:37;;;;;;;18.70;13.00;;;;;;;13.19;56.74;99002.78;5155076;27;44168;-85
2024/02/29 08:30:05;;;;;;;19.30;13.60;;;;;;;12.96;55.76;99014.16;5172831;27;40398;-83
2024/02/29 08:32:33;;;;;;;20.40;13.57;;;;;;;12.73;55.09;99007.78;5172491;27;41806;-85
2024/02/29 08:35:02;;;;;;;20.33;13.10;;;;;;;12.65;55.05;99023.38;5173694;27;20224;-88
2024/02/29 08:37:30;;;;;;;17.83;12.80;;;;;;;12.50;55.26;99017.28;5155029;27;41310;-84
2024/02/29 08:39:57;;;;;;;18.70;12.80;;;;;;;12.40;55.26;99010.06;5172743;27;39835;-90
2024/02/29 08:42:26;;;;;;;19.17;12.60;;;;;;;12.26;55.82;99003.03;5154992;27;41125;-85
2024/02/29 08:44:54;;;;;;;19.20;13.00;;;;;;;12.17;55.89;99003.63;5155068;27;43345;-84
2024/02/29 08:47:22;;;;;;;17.17;12.43;;;;;;;12.02;55.38;98994.03;5172494;27;43140;-87
2024/02/29 08:49:49;;;;;;;21.60;13.23;;;;;;;12.06;55.46;98982.28;5155098;27;39036;-83
2024/02/29 08:52:17;;;;;;;22.17;14.00;;;;;;;12.05;55.46;98976.09;5173830;27;41767;-82
2024/02/29 08:54:44;;;;;;;19.90;13.80;;;;;;;12.32;55.37;98997.31;5156185;27;41954;-83
2024/02/29 08:57:12;;;;;;;23.17;13.30;;;;;;;12.38;54.77;98996.88;5154652;27;42664;-88
2024/02/29 08:59:41;;;;;;;19.00;13.63;;;;;;;12.44;55.16;98996.47;5172954;27;41003;-87
2024/02/29 09:02:08;;;;;;;19.03;12.60;;;;;;;12.54;54.46;99002.88;5155760;27;40918;-87
2024/02/29 09:04:36;;;;;;;21.23;12.83;;;;;;;12.61;53.89;98979.38;5173342;27;41856;-81
2024/02/29 09:07:04;;;;;;;18.27;13.03;;;;;;;12.94;53.76;98990.34;5173251;27;41214;-81
2024/02/29 09:09:31;;;;;;;20.77;14.17;;;;;;;13.20;53.45;98985.88;5174534;27;40279;-89
2024/02/29 09:11:59;;;;;;;18.70;13.60;;;;;;;13.43;52.78;98967.41;5155513;27;41670;-84
2024/02/29 09:14:27;;;;;;;18.57;12.87;;;;;;;13.95;52.69;98978.59;5172047;27;43743;-82
2024/02/29 09:16:55;;;;;;;20.80;14.30;;;;;;;14.55;50.99;98988.28;5171730;27;42862;-86
2024/02/29 09:19:23;;;;;;;22.93;14.80;;;;;;;15.52;49.35;98976.19;5154867;27;40137;-85
2024/02/29 09:21:50;;;;;;;19.17;13.93;;;;;;;17.24;46.27;98978.53;5173161;27;42033;-81
2024/02/29 09:24:18;;;;;;;18.13;13.87;;;;;;;20.07;42.46;99002.91;5169355;27;42871;-83
2024/02/29 09:26:46;;;;;;;16.97;12.97;;;;;;;22.12;38.24;99019.31;5161168;27;42186;-87
2024/02/29 09:29:13;;;;;;;17.83;13.30;;;;;;;23.37;36.14;99032.47;5173279;27;40148;-89
2024/02/29 09:31:41;;;;;;;16.47;13.70;;;;;;;24.37;33.92;99022.75;5168041;27;40496;-83
2024/02/29 09:34:10;;;;;;;17.37;13.93;;;;;;;25.17;32.56;99033.97;5173519;27;42977;-84
2024/02/29 09:36:37;;;;;;;16.52;13.25;;;;;;;25.90;31.79;99033.19;5156380;27;42019;-80
2024/02/29 09:39:06;;;;;;;17.88;14.23;;;;;;;26.30;31.02;99028.25;5174034;27;40076;-83
2024/02/29 09:41:33;;;;;;;16.73;13.43;;;;;;;26.89;30.43;99031.56;5152094;27;42773;-84
2024/02/29 09:44:02;;;;;;;15.07;12.85;;;;;;;26.83;29.83;99029.59;5138609;27;43521;-85
2024/02/29 09:46:30;;;;;;;16.83;14.77;;;;;;;26.26;29.68;99029.63;5138157;27;42472;-84
2024/02/29 09:48:58;;;;;;;16.43;12.97;;;;;;;25.62;30.55;99026.75;5156820;27;40664;-84
2024/02/29 09:51:30;;;;;;;15.30;12.40;;;;;;;24.84;31.62;99005.47;5155169;27;40426;-86
2024/02/29 09:53:58;;;;;;;17.97;13.63;;;;;;;24.30;32.28;99000.16;5138451;27;43639;-86
2024/02/29 09:56:29;;;;;;;14.57;13.00;;;;;;;23.67;32.75;98990.31;5156324;27;40992;-84
2024/02/29 09:58:59;;;;;;;17.73;13.57;;;;;;;23.16;33.22;98954.66;5138770;27;38994;-88
2024/02/29 10:01:27;;;;;;;19.07;14.73;;;;;;;23.50;32.59;98983.25;5137765;27;41874;-86
2024/02/29 10:03:55;;;;;;;17.63;14.33;;;;;;;23.17;32.26;98964.47;5137870;27;42037;-84
2024/02/29 10:06:22;;;;;;;15.70;12.67;;;;;;;24.06;31.91;98973.22;5137042;27;42758;-83
2024/02/29 10:08:51;;;;;;;17.77;13.43;;;;;;;24.22;31.60;98978.53;5145598;27;41735;-85
2024/02/29 10:11:20;;;;;;;17.40;14.30;;;;;;;23.65;31.75;98959.91;5177133;27;41967;-89
2024/02/29 10:13:48;;;;;;;17.97;13.97;;;;;;;23.08;32.88;98946.59;5155384;27;42013;-84
2024/02/29 10:16:16;;;;;;;19.77;14.80;;;;;;;24.41;32.13;98956.41;5137349;27;42718;-84
2024/02/29 10:18:44;;;;;;;18.73;13.50;;;;;;;24.23;31.57;98953.19;5161744;27;40863;-84
2024/02/29 10:21:13;;;;;;;15.87;12.87;;;;;;;23.91;31.90;98956.91;5158105;27;45398;-84
2024/02/29 10:23:41;;;;;;;19.07;15.20;;;;;;;25.12;30.20;98960.50;5158353;27;43494;-83
2024/02/29 10:26:10;;;;;;;17.67;13.27;;;;;;;25.54;29.49;98969.84;5157971;27;43685;-81
2024/02/29 10:28:37;;;;;;;16.37;13.60;;;;;;;25.34;29.73;98954.19;5158547;27;41433;-83
2024/02/29 10:31:06;;;;;;;16.48;13.40;;;;;;;27.08;29.08;98948.50;5158184;27;41045;-84
2024/02/29 10:33:37;;;;;;;17.77;13.57;;;;;;;28.62;26.59;98969.66;5157815;27;42092;-83
2024/02/29 10:36:13;;;;;;;16.67;14.15;;;;;;;28.75;25.96;98953.31;5154834;27;42144;-83
2024/02/29 10:38:40;;;;;;;18.83;13.85;;;;;;;27.56;26.05;98954.06;5151750;27;40273;-83
2024/02/29 10:41:11;;;;;;;22.20;14.97;;;;;;;26.46;27.41;98950.06;5142979;27;40931;-86
2024/02/29 10:43:38;;;;;;;20.23;16.37;;;;;;;25.41;28.13;98951.53;5147024;27;41834;-82
2024/02/29 10:46:08;;;;;;;19.20;14.63;;;;;;;24.71;29.16;98924.84;5136876;27;41077;-83
2024/02/29 10:48:47;;;;;;;20.47;16.37;;;;;;;24.84;29.07;98932.34;5154355;27;40340;-81
2024/02/29 10:51:24;;;;;;;16.77;13.57;;;;;;;25.28;29.48;98922.38;5137211;27;42356;-84
2024/02/29 10:54:03;;;;;;;18.57;14.40;;;;;;;24.52;29.11;98928.91;5151292;27;44080;-81
2024/02/29 10:56:33;;;;;;;18.10;13.87;;;;;;;23.60;nan;98892.88;5152694;27;42177;-84
2024/02/29 10:59:04;;;;;;;19.50;15.10;;;;;;;23.64;30.13;98905.00;5136947;27;38834;-85
2024/02/29 11:01:32;;;;;;;18.33;14.17;;;;;;;23.63;30.81;98897.06;5154234;27;42067;-83
2024/02/29 11:04:00;;;;;;;19.80;15.10;;;;;;;23.66;30.52;98864.25;5154469;27;42713;-83
2024/02/29 11:06:31;;;;;;;18.07;14.10;;;;;;;23.48;30.76;98888.84;5143111;27;41524;-85
2024/02/29 11:09:01;;;;;;;18.93;15.27;;;;;;;22.83;31.25;98863.94;5154582;27;38857;-81
2024/02/29 11:11:29;;;;;;;19.03;13.53;;;;;;;22.38;31.99;98851.00;5168711;27;42953;-82
2024/02/29 11:14:08;;;;;;;19.40;13.83;;;;;;;22.16;32.65;98844.47;5153243;27;42344;-83
2024/02/29 11:16:39;;;;;;;20.17;14.27;;;;;;;22.12;32.39;98856.63;5152520;27;42803;-85
2024/02/29 11:19:10;;;;;;;22.83;15.77;;;;;;;22.47;32.36;98847.31;5137346;27;39424;-83
2024/02/29 11:21:38;;;;;;;18.90;14.67;;;;;;;22.58;32.33;98838.84;5153071;27;42913;-82
2024/02/29 11:24:08;;;;;;;18.73;14.00;;;;;;;22.46;32.51;98837.53;5136736;27;41967;-83
2024/02/29 11:26:37;;;;;;;18.23;14.43;;;;;;;22.07;32.88;98821.22;5152552;27;41002;-81
2024/02/29 11:29:17;;;;;;;20.23;14.57;;;;;;;21.64;32.90;98820.47;5157247;27;39107;-80
2024/02/29 11:31:46;;;;;;;17.20;13.27;;;;;;;21.43;33.55;98812.03;5156879;27;40700;-80